DW8219 Weather Reports


Display with metric or nautical units.
time (UTC)temp
F
wind
direction
speed
MPH
gust
MPH
rain 1hr
in
rain 24hr
in
rain mn
in
humidity
%
barometer
mb
20200711234404 75 180 4.0 9.0 0.30 1.24 1.09 88 1002.5
20200711233905 74 167 5.0 10.0 0.37 1.24 1.09 88 1002.6
20200711233405 74 162 3.0 8.0 0.38 1.24 1.09 87 1002.4
20200711232908 74 162 5.0 9.0 0.38 1.24 1.09 87 1002.4
20200711232405 75 181 6.0 12.0 0.38 1.24 1.09 88 1002.4
20200711231905 74 203 3.0 8.0 0.38 1.25 1.09 88 1002.3
20200711231405 75 190 3.0 8.0 0.38 1.25 1.09 87 1002.1
20200711230905 75 181 6.0 13.0 0.38 1.26 1.09 87 1002.3
20200711230405 76 174 9.0 14.0 0.38 1.27 1.09 87 1001.5
20200711225905 76 208 7.0 12.0 0.38 1.27 1.09 86 1001.5
20200711225404 77 213 7.0 17.0 0.32 1.21 1.03 85 1001.5
20200711224904 78 176 6.0 13.0 0.19 1.08 0.90 81 1002.1
20200711224405 81 174 11.0 18.0 0.08 0.97 0.79 80 1002.0
20200711223904 82 192 5.0 12.0 0.01 0.90 0.72 80 1001.5
20200711223405 82 198 5.0 10.0 0.00 0.89 0.71 79 1001.7
20200711222905 82 189 4.0 9.0 0.00 0.89 0.71 79 1001.5
20200711222405 82 185 4.0 8.0 0.00 0.91 0.71 78 1001.6
20200711221905 82 188 5.0 10.0 0.00 0.92 0.71 78 1001.4
20200711221405 82 203 6.0 12.0 0.00 0.92 0.71 78 1001.5
20200711220905 83 211 5.0 9.0 0.00 0.92 0.71 78 1001.5
20200711220406 83 185 3.0 9.0 0.00 0.92 0.71 77 1001.4
20200711215906 83 172 6.0 12.0 0.00 0.92 0.71 76 1001.2
20200711215407 84 127 3.0 8.0 0.00 0.92 0.71 76 1001.2
20200711214905 84 158 7.0 14.0 0.00 0.92 0.71 75 1001.2
20200711214405 84 168 9.0 13.0 0.00 0.92 0.71 76 1001.3
20200711213904 83 162 6.0 15.0 0.00 0.92 0.71 77 1001.4
20200711213404 83 185 3.0 9.0 0.00 0.92 0.71 77 1001.5
20200711212905 83 165 6.0 12.0 0.00 0.92 0.71 76 1001.5
20200711212404 84 177 7.0 13.0 0.00 0.92 0.71 75 1001.5
20200711211904 84 143 7.0 14.0 0.00 0.93 0.71 75 1001.6
20200711211404 84 135 5.0 12.0 0.00 0.93 0.71 77 1001.7
20200711210903 84 143 5.0 13.0 0.00 0.96 0.71 75 1001.7
20200711210404 84 158 7.0 13.0 0.00 0.98 0.71 75 1001.7
20200711205905 85 161 7.0 12.0 0.00 0.98 0.71 75 1001.7
20200711205404 84 148 3.0 12.0 0.00 0.99 0.71 77 1001.7
20200711204905 84 174 5.0 14.0 0.00 1.02 0.71 76 1001.9
20200711204404 84 146 7.0 12.0 0.00 1.06 0.71 78 1001.9
20200711203908 84 155 7.0 12.0 0.00 1.09 0.71 80 1002.0
20200711203403 83 156 5.0 13.0 0.00 1.12 0.71 83 1002.1
20200711202907 83 169 6.0 12.0 0.00 1.17 0.71 83 1002.1
20200711202405 81 159 6.0 12.0 0.00 1.21 0.71 85 1002.2
20200711201904 81 159 6.0 12.0 0.00 1.26 0.71 87 1002.2
20200711201405 81 141 3.0 9.0 0.00 1.30 0.71 89 1002.3
20200711200904 80 150 5.0 12.0 0.02 1.35 0.71 90 1002.3
20200711200405 81 123 2.0 6.0 0.08 1.40 0.71 90 1002.3
20200711195904 81 68 1.0 3.0 0.14 1.46 0.71 91 1002.4
20200711195407 81 58 2.0 7.0 0.20 1.53 0.71 92 1002.6
20200711194905 80 133 1.0 3.0 0.27 1.59 0.71 93 1002.6
20200711194404 80 134 2.0 7.0 0.38 1.65 0.71 91 1002.6
20200711193904 79 151 2.0 5.0 0.45 1.72 0.71 92 1002.6
20200711193404 79 177 3.0 7.0 0.46 1.78 0.71 92 1002.8
20200711192904 78 182 1.0 3.0 0.46 1.84 0.71 93 1002.7
20200711192404 77 183 1.0 2.0 0.49 1.91 0.71 93 1002.8
20200711191906 76 183 1.0 3.0 0.62 1.99 0.71 92 1003.0
20200711191407 76 184 2.0 3.0 0.66 2.07 0.71 92 1003.0
20200711190904 75 183 0.0 3.0 0.65 2.13 0.69 91 1003.2
20200711190404 76 186 3.0 6.0 0.59 2.13 0.63 90 1003.2
20200711185906 77 193 2.0 10.0 0.53 2.11 0.57 89 1003.4
20200711185404 78 217 6.0 12.0 0.47 2.08 0.51 90 1003.5
20200711184905 78 227 3.0 9.0 0.40 2.05 0.44 90 1003.0
20200711184406 79 136 3.0 10.0 0.29 1.97 0.33 89 1003.0
20200711183905 79 128 3.0 9.0 0.22 1.93 0.26 89 1003.0
20200711183404 79 61 1.0 7.0 0.21 1.95 0.25 88 1002.8
20200711182905 80 55 1.0 5.0 0.21 1.99 0.25 87 1002.8
20200711182405 81 39 3.0 6.0 0.18 2.00 0.22 85 1003.1
20200711181905 82 134 7.0 12.0 0.05 1.91 0.09 83 1003.1
20200711181405 83 131 6.0 12.0 0.01 1.89 0.05 79 1003.1
20200711180905 83 135 5.0 10.0 0.00 1.91 0.04 79 1003.2
20200711180404 83 141 5.0 9.0 0.00 1.94 0.04 78 1003.3
20200711175904 83 138 3.0 9.0 0.00 1.97 0.04 78 1003.4
20200711175404 83 140 7.0 10.0 0.00 2.02 0.04 78 1003.5
20200711174905 83 150 7.0 12.0 0.00 2.05 0.04 77 1003.6
20200711174405 84 167 7.0 12.0 0.00 2.07 0.04 76 1003.6
20200711173905 84 230 4.0 7.0 0.00 2.08 0.04 76 1003.7
20200711173404 84 162 6.0 15.0 0.00 2.10 0.04 76 1003.8
20200711172905 84 165 6.0 12.0 0.00 2.10 0.04 76 1003.8
20200711172404 84 164 5.0 10.0 0.00 2.11 0.04 75 1003.9
20200711171907 84 171 3.0 9.0 0.00 2.13 0.04 76 1004.0
20200711171405 84 147 6.0 13.0 0.00 2.15 0.04 76 1004.0
20200711170905 84 211 6.0 12.0 0.00 2.17 0.04 77 1004.0
20200711170405 84 179 5.0 12.0 0.00 2.19 0.04 75 1004.1
20200711165905 84 148 3.0 9.0 0.00 2.20 0.04 77 1004.2
20200711165405 84 172 5.0 12.0 0.00 2.21 0.04 77 1004.3
20200711164905 83 188 6.0 10.0 0.00 2.22 0.04 78 1004.4
20200711164406 83 168 4.0 9.0 0.00 2.23 0.04 78 1004.4
20200711163904 83 165 6.0 12.0 0.00 2.24 0.04 78 1004.5
20200711163404 83 194 7.0 12.0 0.00 2.25 0.04 78 1004.5
20200711162922 83 166 5.0 9.0 0.00 2.25 0.04 77 1004.5
20200711162404 83 138 6.0 12.0 0.00 2.25 0.04 76 1004.6
20200711161905 83 178 4.0 10.0 0.00 2.25 0.04 76 1004.6
20200711161406 83 157 7.0 13.0 0.00 2.25 0.04 76 1004.6
20200711160909 83 162 5.0 9.0 0.00 2.25 0.04 76 1004.6
20200711160407 83 170 5.0 12.0 0.00 2.26 0.04 76 1004.6
20200711155905 84 148 7.0 12.0 0.00 2.27 0.04 76 1004.5
20200711155405 84 138 5.0 10.0 0.00 2.27 0.04 77 1004.6
20200711154906 83 144 5.0 12.0 0.00 2.28 0.04 79 1004.7
20200711154406 82 179 4.0 12.0 0.00 2.30 0.04 81 1004.7
20200711153904 82 154 3.0 12.0 0.00 2.30 0.04 81 1004.7
20200711153405 82 132 5.0 12.0 0.00 2.31 0.04 81 1004.7
20200711152905 82 173 5.0 12.0 0.00 2.31 0.04 81 1004.7
20200711152404 82 126 6.0 12.0 0.00 2.31 0.04 82 1004.7
20200711151904 81 182 4.0 9.0 0.00 2.31 0.04 83 1004.7
20200711151404 81 163 5.0 12.0 0.00 2.32 0.04 83 1004.7
20200711150904 81 180 5.0 9.0 0.00 2.32 0.04 81 1004.8
20200711150404 81 210 4.0 8.0 0.00 2.32 0.04 81 1004.7
20200711145904 81 169 4.0 8.0 0.00 2.32 0.04 82 1004.8
20200711145404 81 179 5.0 12.0 0.00 2.32 0.04 81 1004.7
20200711144905 81 220 5.0 8.0 0.00 2.32 0.04 81 1004.8
20200711144404 81 181 3.0 9.0 0.00 2.32 0.04 82 1004.7
20200711143904 81 186 5.0 10.0 0.00 2.32 0.04 81 1004.7
20200711143404 81 206 2.0 9.0 0.00 2.32 0.04 82 1004.6
20200711142907 81 221 5.0 8.0 0.00 2.32 0.04 82 1004.7
20200711142404 81 182 5.0 9.0 0.00 2.32 0.04 83 1004.6
20200711141910 81 157 5.0 12.0 0.00 2.32 0.04 82 1004.5
20200711141404 81 134 6.0 12.0 0.00 2.32 0.04 82 1004.6
20200711140904 80 195 5.0 9.0 0.00 2.32 0.04 83 1004.7
20200711140405 80 157 5.0 9.0 0.00 2.32 0.04 83 1004.7
20200711135904 80 168 3.0 7.0 0.00 2.32 0.04 83 1004.9
20200711135404 80 188 4.0 10.0 0.00 2.32 0.04 82 1004.9
20200711134904 80 200 6.0 12.0 0.00 2.32 0.04 82 1004.7
20200711134405 80 166 6.0 9.0 0.00 2.32 0.04 83 1004.8
20200711133904 79 222 6.0 8.0 0.00 2.32 0.04 83 1004.8
20200711133405 79 207 3.0 6.0 0.00 2.32 0.04 83 1004.8
20200711132905 79 150 6.0 8.0 0.00 2.32 0.04 83 1004.9
20200711132409 79 176 3.0 9.0 0.00 2.32 0.04 84 1005.0
20200711131905 79 220 3.0 7.0 0.00 2.32 0.04 83 1005.1
20200711131404 79 206 6.0 12.0 0.00 2.32 0.04 84 1005.1
20200711130904 78 196 5.0 13.0 0.00 2.32 0.04 84 1005.1
20200711130404 78 167 4.0 10.0 0.00 2.32 0.04 83 1005.1
20200711125904 77 166 3.0 8.0 0.00 2.32 0.04 83 1005.1
20200711125405 77 206 5.0 10.0 0.00 2.32 0.04 83 1005.0
20200711124905 78 173 6.0 13.0 0.00 2.32 0.04 84 1005.0
20200711124404 78 245 2.0 7.0 0.00 2.32 0.04 86 1004.9
20200711123904 77 200 3.0 7.0 0.00 2.32 0.04 85 1005.0
20200711123405 77 198 3.0 7.0 0.00 2.32 0.04 86 1005.0
20200711122905 77 149 5.0 12.0 0.00 2.32 0.04 86 1004.9
20200711122404 76 230 4.0 9.0 0.00 2.32 0.04 88 1004.9
20200711121905 76 174 4.0 9.0 0.00 2.32 0.04 88 1004.8
20200711121404 76 213 4.0 7.0 0.00 2.32 0.04 89 1004.8
20200711120905 75 162 3.0 7.0 0.00 2.32 0.04 89 1004.9
20200711120404 75 207 4.0 8.0 0.00 2.32 0.04 90 1004.8
20200711115904 75 153 3.0 6.0 0.00 2.32 0.04 90 1004.7
20200711115404 75 202 2.0 3.0 0.00 2.32 0.04 91 1004.7
20200711114905 75 202 2.0 3.0 0.00 2.32 0.04 91 1004.8
20200711114405 75 210 2.0 6.0 0.00 2.32 0.04 92 1004.8
20200711113905 74 205 3.0 6.0 0.00 2.32 0.04 92 1004.6
20200711113410 74 224 3.0 6.0 0.00 2.32 0.04 92 1004.6
20200711112905 74 215 2.0 7.0 0.00 2.32 0.04 92 1004.7
20200711112405 74 196 5.0 8.0 0.00 2.32 0.04 93 1004.7
20200711111905 74 217 3.0 6.0 0.00 2.32 0.04 93 1004.8
20200711111407 74 161 1.0 7.0 0.00 2.32 0.04 93 1004.6
20200711110912 74 186 2.0 3.0 0.00 2.32 0.04 94 1004.7
20200711110404 73 174 2.0 6.0 0.00 2.32 0.04 94 1004.6
20200711105913 73 184 2.0 7.0 0.00 2.32 0.04 94 1004.7
20200711105406 73 178 2.0 3.0 0.00 2.32 0.04 94 1004.6
20200711104905 73 167 1.0 7.0 0.00 2.32 0.04 94 1004.6
20200711104405 72 196 3.0 8.0 0.00 2.32 0.04 94 1004.5
20200711103905 72 206 3.0 6.0 0.00 2.32 0.04 94 1004.4
20200711103405 72 204 3.0 9.0 0.00 2.32 0.04 94 1004.4
20200711102905 72 190 3.0 6.0 0.00 2.32 0.04 94 1004.4
20200711102407 72 183 2.0 6.0 0.00 2.32 0.04 95 1004.4
20200711101904 72 201 1.0 5.0 0.00 2.32 0.04 95 1004.4
20200711101405 71 201 1.0 6.0 0.00 2.32 0.04 95 1004.3
20200711100908 71 203 2.0 6.0 0.00 2.32 0.04 95 1004.2
20200711100406 71 217 3.0 7.0 0.00 2.32 0.04 94 1004.2
20200711095905 71 232 2.0 6.0 0.00 2.32 0.04 94 1004.2
20200711095405 71 197 3.0 7.0 0.00 2.32 0.04 95 1004.1
20200711094905 71 205 3.0 9.0 0.00 2.32 0.04 95 1004.2
20200711094405 71 226 3.0 6.0 0.00 2.32 0.04 95 1004.2
20200711093904 71 212 2.0 7.0 0.00 2.32 0.04 95 1004.3
20200711093404 71 205 3.0 7.0 0.00 2.32 0.04 95 1004.3
20200711092905 71 207 2.0 5.0 0.00 2.32 0.04 95 1004.3
20200711092404 71 230 4.0 9.0 0.00 2.32 0.04 95 1004.3
20200711091904 71 242 3.0 7.0 0.00 2.32 0.04 95 1004.2
20200711091404 71 219 3.0 8.0 0.00 2.32 0.04 95 1004.2
20200711090904 71 195 3.0 8.0 0.00 2.32 0.04 95 1004.2
20200711090404 71 223 5.0 9.0 0.00 2.32 0.04 95 1004.0
20200711085904 71 213 3.0 8.0 0.00 2.32 0.04 95 1004.0
20200711085404 72 197 5.0 9.0 0.00 2.32 0.04 95 1003.8
20200711084904 72 202 6.0 13.0 0.00 2.32 0.04 95 1003.7
20200711084404 72 234 6.0 12.0 0.00 2.32 0.04 95 1003.8
20200711083904 72 208 7.0 12.0 0.00 2.32 0.04 95 1003.6
20200711083404 72 245 5.0 12.0 0.00 2.32 0.04 95 1003.6
20200711082904 72 211 5.0 10.0 0.00 2.32 0.04 95 1003.6
20200711082404 72 232 6.0 14.0 0.00 2.32 0.04 95 1003.6
20200711081904 72 197 9.0 15.0 0.00 2.32 0.04 95 1003.6
20200711081404 72 213 7.0 13.0 0.00 2.32 0.04 95 1003.6
20200711080906 72 196 7.0 14.0 0.00 2.32 0.04 95 1003.6
20200711080404 72 219 9.0 15.0 0.00 2.32 0.04 95 1003.5
20200711075904 72 225 7.0 13.0 0.00 2.32 0.04 95 1003.4
20200711075405 72 210 7.0 13.0 0.00 2.32 0.04 95 1003.4
20200711074904 72 211 9.0 18.0 0.00 2.32 0.04 95 1003.5
20200711074404 72 218 9.0 15.0 0.00 2.32 0.04 95 1003.5
20200711073904 72 198 7.0 12.0 0.01 2.32 0.04 95 1003.4
20200711073406 72 236 9.0 15.0 0.01 2.32 0.04 95 1003.3
20200711072905 72 215 9.0 16.0 0.01 2.32 0.04 95 1003.2
20200711072405 72 199 9.0 18.0 0.01 2.32 0.04 95 1003.2
20200711071904 72 217 8.0 14.0 0.01 2.32 0.04 95 1003.2
20200711071404 72 213 9.0 14.0 0.02 2.32 0.04 95 1003.1
20200711070904 72 216 7.0 16.0 0.02 2.32 0.04 95 1003.0
20200711070404 72 196 8.0 16.0 0.02 2.32 0.04 95 1002.9
20200711065904 72 217 9.0 17.0 0.02 2.32 0.04 95 1003.0
20200711065405 72 201 6.0 15.0 0.02 2.32 0.04 95 1002.8
20200711064909 72 187 10.0 20.0 0.02 2.32 0.04 95 1002.8
20200711064406 72 200 9.0 16.0 0.02 2.32 0.04 95 1002.8
20200711063905 72 220 10.0 17.0 0.01 2.31 0.03 95 1002.8
20200711063404 72 215 9.0 17.0 0.01 2.31 0.03 95 1002.7
20200711062905 72 203 9.0 21.0 0.01 2.31 0.03 96 1002.7
20200711062404 72 228 11.0 18.0 0.01 2.31 0.03 96 1002.6
20200711061904 72 201 10.0 18.0 0.01 2.31 0.03 96 1002.5
20200711061405 72 225 9.0 21.0 0.00 2.30 0.02 95 1002.6
20200711060906 72 203 7.0 18.0 0.00 2.30 0.02 95 1002.5
20200711060404 72 216 9.0 17.0 0.00 2.30 0.02 96 1002.4
20200711055905 72 217 9.0 14.0 0.00 2.30 0.02 96 1002.4
20200711055406 72 203 8.0 16.0 0.00 2.30 0.02 96 1002.4
20200711054905 72 214 10.0 20.0 0.00 2.30 0.02 96 1002.3
20200711054406 72 224 9.0 24.0 0.00 2.30 0.02 95 1002.3
20200711053905 72 203 7.0 20.0 0.00 2.30 0.02 95 1002.3
20200711053405 72 205 10.0 21.0 0.00 2.30 0.02 95 1002.2
20200711052909 73 192 10.0 22.0 0.01 2.30 0.02 95 1002.2
20200711052404 73 212 7.0 14.0 0.01 2.30 0.02 95 1002.0
20200711051905 73 199 6.0 16.0 0.01 2.30 0.02 95 1002.1
20200711051404 73 197 7.0 12.0 0.02 2.30 0.02 95 1002.1
20200711050906 73 224 8.0 23.0 0.02 2.30 0.02 95 1002.1
20200711050406 73 204 7.0 15.0 0.02 2.30 0.02 95 1002.0
20200711045905 73 189 9.0 20.0 0.02 2.30 0.02 95 1002.0
20200711045404 73 191 7.0 14.0 0.02 2.30 0.02 95 1001.9
20200711044905 73 192 9.0 15.0 0.02 2.30 0.02 95 1001.8
20200711044405 73 199 9.0 20.0 0.02 2.30 0.02 95 1001.8
20200711043904 73 183 8.0 17.0 0.02 2.30 0.02 95 1001.7
20200711043405 74 196 7.0 18.0 0.02 2.30 0.02 95 1001.7
20200711042905 74 162 7.0 14.0 0.01 2.29 0.01 95 1001.7
20200711042405 74 188 6.0 12.0 0.01 2.29 0.01 95 1001.6
20200711041906 74 175 7.0 14.0 0.01 2.29 0.01 95 1001.6
20200711041405 74 174 5.0 9.0 0.00 2.28 0.00 95 1001.7
20200711040905 74 178 5.0 12.0 0.00 2.28 0.00 95 1001.7
20200711040406 74 216 6.0 12.0 0.00 2.28 0.00 95 1001.6
20200711035905 74 181 5.0 9.0 0.00 2.28 2.28 95 1001.5
20200711035405 74 196 7.0 20.0 0.01 2.28 2.28 95 1001.5
20200711034905 74 166 7.0 13.0 0.01 2.28 2.28 95 1001.4
20200711034406 74 180 6.0 15.0 0.01 2.28 2.28 95 1001.5
20200711033906 74 181 6.0 12.0 0.01 2.28 2.28 95 1001.4
20200711033403 74 167 7.0 17.0 0.02 2.28 2.28 95 1001.5
20200711032904 74 170 8.0 16.0 0.02 2.28 2.28 95 1001.4
20200711032442 74 164 8.0 20.0 0.02 2.28 2.28 95 1001.3
20200711031904 74 156 7.0 12.0 0.02 2.28 2.28 95 1001.3
20200711031405 74 160 6.0 12.0 0.02 2.28 2.28 95 1001.2
20200711030904 74 172 6.0 14.0 0.02 2.28 2.28 95 1001.2
20200711030404 74 149 9.0 12.0 0.02 2.28 2.28 95 1001.2
20200711025905 74 147 5.0 12.0 0.03 2.28 2.28 95 1001.2
20200711025405 74 150 6.0 12.0 0.02 2.27 2.27 95 1001.3
20200711024904 74 157 8.0 16.0 0.02 2.27 2.27 95 1001.3
20200711024405 74 149 5.0 12.0 0.02 2.27 2.27 95 1001.3
20200711023905 73 149 7.0 15.0 0.02 2.27 2.27 95 1001.3
20200711023407 73 139 5.0 14.0 0.01 2.26 2.26 95 1001.2
20200711022904 73 133 7.0 12.0 0.03 2.26 2.26 95 1001.2
20200711022404 73 134 6.0 12.0 0.03 2.26 2.26 95 1001.2
20200711021905 73 140 7.0 13.0 0.03 2.26 2.26 95 1001.3
20200711021404 73 131 5.0 14.0 0.03 2.26 2.26 96 1001.3
20200711020905 73 130 7.0 14.0 0.04 2.26 2.26 96 1001.3
20200711020405 73 136 4.0 9.0 0.04 2.26 2.26 95 1001.3
20200711015905 73 136 2.0 12.0 0.04 2.25 2.25 95 1001.3
20200711015407 73 134 3.0 10.0 0.04 2.25 2.25 95 1001.4
20200711014904 73 92 2.0 7.0 0.05 2.25 2.25 95 1001.4
20200711014405 73 132 5.0 12.0 0.05 2.25 2.25 95 1001.4
20200711013904 73 88 4.0 9.0 0.06 2.25 2.25 95 1001.4
20200711013406 73 103 5.0 12.0 0.06 2.25 2.25 95 1001.3
20200711012905 73 122 5.0 12.0 0.05 2.23 2.23 95 1001.3
20200711012404 72 101 3.0 8.0 0.05 2.23 2.23 95 1001.2
20200711011904 72 97 3.0 12.0 0.06 2.23 2.23 95 1001.2
20200711011405 72 98 6.0 12.0 0.07 2.23 2.23 95 1001.2
20200711010906 72 93 6.0 20.0 0.07 2.22 2.22 95 1001.2
20200711010404 72 87 3.0 16.0 0.07 2.22 2.22 95 1001.3
20200711005904 72 99 5.0 13.0 0.06 2.21 2.21 95 1001.4
20200711005404 73 91 3.0 10.0 0.06 2.21 2.21 95 1001.4
20200711004906 73 98 5.0 15.0 0.06 2.20 2.20 95 1001.5
20200711004405 73 100 5.0 12.0 0.07 2.20 2.20 95 1001.4
20200711003905 73 93 8.0 16.0 0.06 2.19 2.19 95 1001.5
20200711003404 73 91 7.0 18.0 0.06 2.19 2.19 95 1001.7
20200711002904 73 105 7.0 13.0 0.05 2.18 2.18 95 1001.7
20200711002404 73 93 7.0 15.0 0.05 2.18 2.18 95 1001.8
20200711001905 73 108 5.0 12.0 0.05 2.17 2.17 95 1001.9
20200711001404 73 102 6.0 14.0 0.04 2.16 2.16 95 1002.0
20200711000908 73 112 6.0 14.0 0.04 2.15 2.15 95 1002.2
20200711000405 73 87 6.0 15.0 0.05 2.15 2.15 95 1002.2
20200710235905 73 76 2.0 12.0 0.05 2.15 2.15 95 1002.2
20200710235404 73 105 6.0 15.0 0.05 2.15 2.15 95 1002.2
20200710234905 73 107 6.0 13.0 0.04 2.14 2.14 95 1002.5